Time;durP1;ratioP1;P1;durP2;ratioP2;P2;SDS_P1;SDS_P2;PMS_P1;PMS_P2;Temp;Humidity;BMP_temperature;BMP_pressure;BME280_temperature;BME280_humidity;BME280_pressure;Samples;Min_cycle;Max_cycle;Signal;HPM_P1;HPM_P2
2023/11/19 00:00:28;;;;;;;31.85;11.48;;;2.20;99.90;;;;;;4826647;29;20059;-75
2023/11/19 00:02:57;;;;;;;33.42;11.20;;;2.20;99.90;;;;;;4835240;29;20124;-75
2023/11/19 00:05:27;;;;;;;36.80;12.50;;;2.20;99.90;;;;;;4837670;29;21004;-75
2023/11/19 00:07:56;;;;;;;29.67;11.00;;;2.10;99.90;;;;;;4825304;29;20128;-75
2023/11/19 00:10:25;;;;;;;35.95;12.25;;;2.10;99.90;;;;;;4830421;29;20713;-76
2023/11/19 00:12:53;;;;;;;38.10;11.82;;;2.10;99.90;;;;;;4823552;29;20744;-75
2023/11/19 00:15:24;;;;;;;30.60;11.27;;;2.00;99.90;;;;;;4825613;29;20669;-75
2023/11/19 00:17:52;;;;;;;33.88;10.75;;;2.00;99.90;;;;;;4825702;29;20518;-75
2023/11/19 00:20:23;;;;;;;33.17;10.45;;;2.10;99.90;;;;;;4830839;29;20053;-75
2023/11/19 00:22:51;;;;;;;37.72;10.90;;;2.10;99.90;;;;;;4840476;29;20092;-75
2023/11/19 00:25:22;;;;;;;24.48;10.00;;;2.00;99.90;;;;;;4827086;29;22685;-75
2023/11/19 00:27:53;;;;;;;21.40;8.20;;;2.00;99.90;;;;;;4824307;29;20061;-75
2023/11/19 00:30:22;;;;;;;29.80;9.40;;;2.00;99.90;;;;;;4820600;29;20053;-75
2023/11/19 00:32:50;;;;;;;38.03;11.95;;;2.00;99.90;;;;;;4829870;29;20092;-75
2023/11/19 00:35:19;;;;;;;43.00;14.00;;;2.00;99.90;;;;;;4823582;29;20057;-75
2023/11/19 00:37:50;;;;;;;31.42;10.13;;;2.00;99.90;;;;;;4835822;29;20061;-75
2023/11/19 00:40:21;;;;;;;27.75;8.48;;;2.00;99.90;;;;;;4839489;29;20053;-75
2023/11/19 00:42:50;;;;;;;23.55;7.50;;;2.00;99.90;;;;;;4849575;29;20061;-75
2023/11/19 00:45:18;;;;;;;25.08;9.15;;;3.10;99.90;;;;;;4826677;29;20065;-75
2023/11/19 00:47:47;;;;;;;22.02;6.35;;;2.00;99.90;;;;;;4821092;29;22546;-75
2023/11/19 00:50:14;;;;;;;20.20;7.30;;;2.00;99.90;;;;;;4835307;29;20417;-75
2023/11/19 00:52:42;;;;;;;23.05;7.10;;;2.00;99.90;;;;;;4843078;29;20046;-75
2023/11/19 00:55:12;;;;;;;23.52;10.13;;;2.00;99.90;;;;;;4826464;29;20068;-75
2023/11/19 00:57:41;;;;;;;19.92;8.60;;;2.00;99.90;;;;;;4832043;29;20198;-75
2023/11/19 01:00:17;;;;;;;21.45;7.53;;;2.00;99.90;;;;;;4826763;29;20060;-75
2023/11/19 01:02:49;;;;;;;21.17;6.93;;;1.90;99.90;;;;;;4827976;29;20111;-75
2023/11/19 01:05:22;;;;;;;18.20;6.97;;;1.90;99.90;;;;;;4835507;29;20057;-75
2023/11/19 01:07:53;;;;;;;22.33;6.93;;;2.00;99.90;;;;;;4825430;29;20053;-75
2023/11/19 01:10:25;;;;;;;21.80;7.82;;;1.90;99.90;;;;;;4824602;29;20513;-75
2023/11/19 01:12:54;;;;;;;27.25;8.80;;;1.90;99.90;;;;;;4827285;29;20072;-75
2023/11/19 01:15:22;;;;;;;25.85;8.75;;;1.90;99.90;;;;;;4820739;29;20955;-75
2023/11/19 01:17:51;;;;;;;23.40;9.48;;;1.90;99.90;;;;;;4840995;29;20145;-75
2023/11/19 01:20:21;;;;;;;19.88;7.65;;;1.90;99.90;;;;;;4843503;29;20140;-75
2023/11/19 01:22:50;;;;;;;19.67;8.05;;;1.90;99.90;;;;;;4828936;29;20545;-75
2023/11/19 01:25:18;;;;;;;22.52;8.85;;;1.90;99.90;;;;;;4823340;29;20063;-75
2023/11/19 01:27:49;;;;;;;19.38;7.40;;;1.80;99.90;;;;;;4845504;29;20049;-76
2023/11/19 01:30:19;;;;;;;19.88;7.43;;;1.90;99.90;;;;;;4837401;29;20052;-75
2023/11/19 01:32:50;;;;;;;21.23;8.43;;;1.90;99.90;;;;;;4825612;29;20203;-75
2023/11/19 01:35:18;;;;;;;23.50;9.05;;;1.80;99.90;;;;;;4829956;29;20084;-75
2023/11/19 01:37:46;;;;;;;27.25;10.05;;;1.80;99.90;;;;;;4822331;29;20454;-75
2023/11/19 01:40:16;;;;;;;40.58;14.07;;;1.80;99.90;;;;;;4837188;29;20049;-75
2023/11/19 01:42:44;;;;;;;31.02;11.13;;;1.80;99.90;;;;;;4825935;29;20049;-75
2023/11/19 01:45:27;;;;;;;34.92;12.27;;;1.80;99.90;;;;;;4828605;29;20156;-74
2023/11/19 01:47:56;;;;;;;28.50;10.77;;;1.80;99.90;;;;;;4819233;29;20053;-75
2023/11/19 01:50:25;;;;;;;35.40;11.25;;;1.80;99.90;;;;;;4823519;29;20060;-75
2023/11/19 01:52:54;;;;;;;32.20;11.55;;;1.80;99.90;;;;;;4816772;29;20050;-75
2023/11/19 01:55:23;;;;;;;30.27;11.70;;;1.80;99.90;;;;;;4821633;29;20094;-75
2023/11/19 01:57:54;;;;;;;34.20;11.88;;;1.80;99.90;;;;;;4823449;29;21073;-75
2023/11/19 02:00:24;;;;;;;36.63;12.98;;;1.80;99.90;;;;;;4817795;29;21665;-75
2023/11/19 02:02:54;;;;;;;37.97;12.40;;;1.70;99.90;;;;;;4821279;29;20062;-75
2023/11/19 02:05:23;;;;;;;25.98;10.55;;;1.80;99.90;;;;;;4837428;29;20811;-75
2023/11/19 02:07:53;;;;;;;30.88;10.77;;;1.70;99.90;;;;;;4822176;29;20061;-75
2023/11/19 02:10:24;;;;;;;30.92;11.77;;;1.70;99.90;;;;;;4836617;29;20049;-75
2023/11/19 02:12:53;;;;;;;27.58;10.10;;;1.70;99.90;;;;;;4822576;29;20057;-75
2023/11/19 02:15:34;;;;;;;23.27;9.70;;;1.70;99.90;;;;;;4820940;29;20061;-75
2023/11/19 02:18:22;;;;;;;32.58;12.98;;;1.70;99.90;;;;;;4832006;29;20108;-76
2023/11/19 02:20:51;;;;;;;32.47;12.13;;;1.70;99.90;;;;;;4822937;29;20061;-76
2023/11/19 02:23:21;;;;;;;30.75;12.07;;;1.70;99.90;;;;;;4819016;29;20061;-75
2023/11/19 02:26:02;;;;;;;24.02;9.90;;;1.70;99.90;;;;;;4827536;29;22370;-75
2023/11/19 02:28:33;;;;;;;29.85;11.77;;;1.70;99.90;;;;;;4827331;29;20052;-75
2023/11/19 02:31:01;;;;;;;31.25;11.02;;;1.60;99.90;;;;;;4807031;29;20088;-75
2023/11/19 02:33:30;;;;;;;38.08;13.98;;;1.70;99.90;;;;;;4817596;29;20061;-76
2023/11/19 02:35:58;;;;;;;40.08;14.32;;;1.60;99.90;;;;;;4803970;29;20072;-76
2023/11/19 02:38:26;;;;;;;38.67;13.52;;;1.60;99.90;;;;;;4808231;29;20192;-75
2023/11/19 02:40:55;;;;;;;28.67;11.40;;;1.60;99.90;;;;;;4806371;29;20462;-76
2023/11/19 03:43:09;;;;;;;26.30;9.68;;;1.40;99.90;;;;;;4897113;23;20041;-73
2023/11/19 03:45:38;;;;;;;27.98;8.32;;;1.30;99.90;;;;;;4842662;29;20038;-75
2023/11/19 03:48:09;;;;;;;26.90;10.23;;;1.00;99.90;;;;;;4851201;29;20093;-77
2023/11/19 03:50:38;;;;;;;31.65;10.98;;;1.60;99.90;;;;;;4874288;29;20038;-73
2023/11/19 03:53:07;;;;;;;29.05;9.40;;;1.50;99.90;;;;;;4832505;29;20180;-72
2023/11/19 03:55:36;;;;;;;24.17;9.50;;;1.40;99.90;;;;;;4829617;29;20067;-74
2023/11/19 03:58:04;;;;;;;25.92;10.35;;;1.40;99.90;;;;;;4829086;29;20049;-74
2023/11/19 04:00:35;;;;;;;19.77;8.13;;;1.40;99.90;;;;;;4833630;29;20174;-71
2023/11/19 04:03:03;;;;;;;21.60;8.55;;;1.40;99.90;;;;;;4816304;29;20057;-72
2023/11/19 04:05:33;;;;;;;24.60;9.15;;;1.40;99.90;;;;;;4806034;29;20072;-72
2023/11/19 04:08:01;;;;;;;19.63;8.70;;;1.40;99.90;;;;;;4818193;29;20057;-71
2023/11/19 04:10:29;;;;;;;19.88;7.47;;;1.40;99.90;;;;;;4819006;29;20189;-72
2023/11/19 04:12:58;;;;;;;17.90;6.97;;;1.50;99.90;;;;;;4818691;29;20205;-72
2023/11/19 04:15:26;;;;;;;20.15;7.88;;;1.50;99.90;;;;;;4835680;29;20053;-71
2023/11/19 04:17:56;;;;;;;23.40;8.57;;;1.50;99.90;;;;;;4819100;29;20170;-72
2023/11/19 04:20:25;;;;;;;25.50;9.15;;;1.50;99.90;;;;;;4821058;29;20065;-74
2023/11/19 04:22:56;;;;;;;22.00;7.87;;;1.40;99.90;;;;;;4835924;29;20228;-72
2023/11/19 04:25:26;;;;;;;23.55;8.50;;;1.40;99.90;;;;;;4833594;29;20065;-72
2023/11/19 04:27:54;;;;;;;23.92;8.70;;;1.40;99.90;;;;;;4834345;29;20521;-72
2023/11/19 04:30:22;;;;;;;28.95;9.40;;;1.40;99.90;;;;;;4819044;29;20121;-72
2023/11/19 04:32:51;;;;;;;26.27;9.50;;;1.40;99.90;;;;;;4837809;29;20186;-71
2023/11/19 04:35:21;;;;;;;32.55;9.48;;;1.40;99.90;;;;;;4826388;29;20061;-73
2023/11/19 04:37:49;;;;;;;32.95;10.55;;;1.30;99.90;;;;;;4836186;29;20057;-72
2023/11/19 04:40:19;;;;;;;38.72;13.55;;;1.40;99.90;;;;;;4839203;29;20045;-71
2023/11/19 04:42:47;;;;;;;31.90;10.60;;;1.30;99.90;;;;;;4839186;29;20148;-73
2023/11/19 04:45:16;;;;;;;30.63;9.48;;;1.40;99.90;;;;;;4834706;29;20517;-72
2023/11/19 04:47:45;;;;;;;30.00;9.63;;;1.30;99.90;;;;;;4820119;29;20065;-72
2023/11/19 04:50:13;;;;;;;27.75;10.30;;;1.40;99.90;;;;;;4850548;29;20044;-70
2023/11/19 04:52:44;;;;;;;24.30;8.25;;;1.30;99.90;;;;;;4826206;29;20088;-72
2023/11/19 04:55:14;;;;;;;19.00;7.93;;;1.30;99.90;;;;;;4841268;29;20085;-72
2023/11/19 04:57:43;;;;;;;18.13;6.80;;;1.30;99.90;;;;;;4822201;29;20524;-73
2023/11/19 05:00:13;;;;;;;20.60;7.68;;;1.30;99.90;;;;;;4834830;29;20053;-73
2023/11/19 05:02:45;;;;;;;19.58;7.30;;;1.30;99.90;;;;;;4839577;29;20045;-74
2023/11/19 05:05:14;;;;;;;17.73;6.38;;;1.30;99.90;;;;;;4834833;29;20060;-75
2023/11/19 05:07:44;;;;;;;14.32;6.68;;;1.30;99.90;;;;;;4833576;29;20133;-74
2023/11/19 05:10:12;;;;;;;18.10;6.55;;;1.40;99.90;;;;;;4831974;29;20049;-75
2023/11/19 05:12:41;;;;;;;17.30;5.85;;;1.40;99.90;;;;;;4830164;29;20558;-75
2023/11/19 05:15:11;;;;;;;14.25;5.85;;;1.40;99.90;;;;;;4846619;29;20052;-74
2023/11/19 05:17:40;;;;;;;19.00;7.15;;;1.40;99.90;;;;;;4844190;29;20041;-74
2023/11/19 05:20:13;;;;;;;17.85;6.90;;;1.30;99.90;;;;;;4820883;29;20061;-74
2023/11/19 05:22:43;;;;;;;16.25;6.65;;;1.30;99.90;;;;;;4849789;29;20189;-74
2023/11/19 05:25:12;;;;;;;15.18;6.28;;;1.30;99.90;;;;;;4839010;29;20061;-74
2023/11/19 05:27:40;;;;;;;18.77;7.07;;;1.30;99.90;;;;;;4836863;29;20810;-74
2023/11/19 05:30:10;;;;;;;16.70;6.40;;;1.30;99.90;;;;;;4850852;29;20604;-75
2023/11/19 05:32:39;;;;;;;14.90;6.07;;;1.30;99.90;;;;;;4843767;29;20060;-75
2023/11/19 05:35:09;;;;;;;14.32;6.18;;;1.30;99.90;;;;;;4830465;29;20103;-74
2023/11/19 05:37:38;;;;;;;14.55;5.93;;;1.30;99.90;;;;;;4814045;29;20057;-75
2023/11/19 05:40:14;;;;;;;18.75;5.95;;;1.40;99.90;;;;;;4819028;29;20053;-77
2023/11/19 05:42:43;;;;;;;14.45;6.28;;;1.40;99.90;;;;;;4833448;29;20540;-77
2023/11/19 05:45:13;;;;;;;19.92;8.07;;;1.30;99.90;;;;;;4827834;29;22771;-77
2023/11/19 05:47:42;;;;;;;16.50;7.18;;;1.40;99.90;;;;;;4833266;29;20092;-77
2023/11/19 05:50:11;;;;;;;22.08;8.10;;;1.40;99.90;;;;;;4813226;29;20360;-76
2023/11/19 05:52:39;;;;;;;19.08;7.80;;;1.40;99.90;;;;;;4831539;29;20050;-76
2023/11/19 05:55:10;;;;;;;17.02;6.78;;;1.40;99.90;;;;;;4832259;29;20057;-77
2023/11/19 05:57:39;;;;;;;17.45;7.20;;;1.40;99.90;;;;;;4832599;29;20057;-76
2023/11/19 06:00:12;;;;;;;16.90;6.45;;;1.30;99.90;;;;;;4828871;29;20045;-76
2023/11/19 06:02:41;;;;;;;12.85;5.45;;;1.30;99.90;;;;;;4831439;29;20520;-76
2023/11/19 06:05:10;;;;;;;13.70;5.88;;;1.30;99.90;;;;;;4842350;29;20049;-76
2023/11/19 06:07:39;;;;;;;13.23;6.22;;;1.30;99.90;;;;;;4814710;29;20060;-77
2023/11/19 06:10:09;;;;;;;19.42;7.95;;;1.30;99.90;;;;;;4840343;29;22781;-77
2023/11/19 06:12:40;;;;;;;15.68;6.60;;;1.30;99.90;;;;;;4830652;29;20053;-74
2023/11/19 06:15:11;;;;;;;14.88;6.78;;;1.40;99.90;;;;;;4815881;29;20087;-74
2023/11/19 06:17:40;;;;;;;20.08;7.35;;;1.30;99.90;;;;;;4847090;29;20057;-75
2023/11/19 06:20:11;;;;;;;16.48;6.70;;;1.30;99.90;;;;;;4833470;29;20053;-74
2023/11/19 06:22:41;;;;;;;18.35;6.88;;;1.30;99.90;;;;;;4819053;29;20057;-75
2023/11/19 06:25:12;;;;;;;18.15;7.30;;;1.50;99.90;;;;;;4834440;29;20895;-73
2023/11/19 06:27:40;;;;;;;15.93;6.00;;;1.30;99.90;;;;;;4840427;29;20060;-74
2023/11/19 06:30:09;;;;;;;17.80;6.97;;;1.40;99.90;;;;;;4815294;29;20161;-74
2023/11/19 06:32:38;;;;;;;15.23;6.75;;;1.40;99.90;;;;;;4831325;29;20104;-74
2023/11/19 06:35:07;;;;;;;18.42;6.93;;;1.40;99.90;;;;;;4815568;29;20048;-74
2023/11/19 06:37:36;;;;;;;16.73;6.80;;;1.30;99.90;;;;;;4833505;29;20064;-77
2023/11/19 06:40:06;;;;;;;18.88;7.97;;;1.40;99.90;;;;;;4833824;29;22514;-75
2023/11/19 06:42:35;;;;;;;20.85;7.53;;;1.40;99.90;;;;;;4833855;29;20280;-75
2023/11/19 06:45:06;;;;;;;17.50;6.93;;;1.40;99.90;;;;;;4853977;29;20201;-73
2023/11/19 06:47:34;;;;;;;19.70;8.43;;;1.40;99.90;;;;;;4837380;29;20540;-73
2023/11/19 06:50:05;;;;;;;22.67;8.75;;;1.50;99.90;;;;;;4832002;29;22600;-74
2023/11/19 06:52:34;;;;;;;25.63;10.63;;;1.40;99.90;;;;;;4818846;29;20058;-74
2023/11/19 06:55:02;;;;;;;22.45;10.30;;;1.40;99.90;;;;;;4829134;29;20061;-74
2023/11/19 06:57:35;;;;;;;20.15;9.05;;;1.50;99.90;;;;;;4825601;29;20092;-75
2023/11/19 07:00:05;;;;;;;20.92;9.40;;;1.60;99.90;;;;;;4825783;29;20057;-78
2023/11/19 07:02:34;;;;;;;22.90;8.18;;;1.60;99.90;;;;;;4804948;29;20064;-76
2023/11/19 07:05:04;;;;;;;25.15;9.65;;;1.70;99.90;;;;;;4810437;29;20060;-76
2023/11/19 07:07:33;;;;;;;24.20;9.50;;;1.70;99.90;;;;;;4828083;29;20053;-76
2023/11/19 07:10:02;;;;;;;26.95;11.27;;;1.80;99.90;;;;;;4821571;29;20064;-76
2023/11/19 07:12:31;;;;;;;24.60;9.13;;;1.80;99.90;;;;;;4828830;29;21003;-76
2023/11/19 07:15:02;;;;;;;20.30;8.38;;;1.80;99.90;;;;;;4831218;29;20049;-76
2023/11/19 07:17:31;;;;;;;22.13;8.40;;;1.90;99.90;;;;;;4815819;29;20064;-77
2023/11/19 07:20:00;;;;;;;18.60;8.30;;;2.10;99.90;;;;;;4832998;29;20089;-80
2023/11/19 07:22:31;;;;;;;17.30;7.00;;;2.20;99.90;;;;;;4838117;29;22478;-79
2023/11/19 07:25:01;;;;;;;17.77;7.97;;;2.20;99.90;;;;;;4856853;29;21970;-79
2023/11/19 07:27:30;;;;;;;16.80;6.97;;;2.20;99.90;;;;;;4841102;29;20068;-79
2023/11/19 07:30:00;;;;;;;14.23;6.70;;;2.30;99.90;;;;;;4838076;29;20517;-79
2023/11/19 07:32:29;;;;;;;19.02;7.90;;;2.30;99.90;;;;;;4851474;29;20050;-79
2023/11/19 07:34:59;;;;;;;18.63;7.40;;;2.60;99.90;;;;;;4851237;29;20064;-79
2023/11/19 07:37:29;;;;;;;18.90;7.28;;;2.40;99.90;;;;;;4836863;29;20148;-79
2023/11/19 07:39:57;;;;;;;16.98;7.70;;;2.40;99.90;;;;;;4853477;29;20068;-79
2023/11/19 07:42:27;;;;;;;18.35;8.40;;;1.80;99.90;;;;;;4850261;29;20057;-79
2023/11/19 07:44:57;;;;;;;18.73;8.00;;;1.70;99.90;;;;;;4848120;29;20056;-79
2023/11/19 07:47:28;;;;;;;26.65;11.82;;;2.90;99.90;;;;;;4848958;29;20057;-79
2023/11/19 07:49:58;;;;;;;30.67;10.90;;;2.40;99.90;;;;;;4860157;29;20050;-79
2023/11/19 07:52:27;;;;;;;80.28;21.13;;;2.40;99.90;;;;;;4834085;29;20081;-79
2023/11/19 07:54:56;;;;;;;171.25;36.47;;;2.90;99.90;;;;;;4832793;29;20112;-80
2023/11/19 07:57:27;;;;;;;116.82;30.95;;;2.50;99.90;;;;;;4830987;29;22091;-79
2023/11/19 07:59:56;;;;;;;109.85;29.73;;;2.60;99.90;;;;;;4843984;29;21893;-79
2023/11/19 08:02:25;;;;;;;76.45;23.35;;;3.00;99.90;;;;;;4836970;29;20042;-80
2023/11/19 08:04:57;;;;;;;72.97;20.55;;;2.50;99.90;;;;;;4832781;29;20054;-79
2023/11/19 08:07:26;;;;;;;241.57;55.47;;;2.50;99.90;;;;;;4840780;29;20079;-81
2023/11/19 08:09:55;;;;;;;88.40;28.08;;;2.50;99.90;;;;;;4838372;29;20066;-80
2023/11/19 08:12:24;;;;;;;51.85;19.05;;;2.60;99.90;;;;;;4847435;29;20041;-81
2023/11/19 08:14:52;;;;;;;40.83;14.50;;;2.60;99.90;;;;;;4840882;29;20518;-79
2023/11/19 08:17:23;;;;;;;42.83;15.48;;;2.70;99.90;;;;;;4836684;29;20058;-79
2023/11/19 08:19:52;;;;;;;32.03;12.48;;;2.70;99.90;;;;;;4835446;29;20057;-79
2023/11/19 08:22:23;;;;;;;30.88;12.07;;;2.80;99.90;;;;;;4834517;29;20060;-79
2023/11/19 08:24:51;;;;;;;34.97;12.77;;;2.90;99.90;;;;;;4836948;29;20061;-80
2023/11/19 08:27:26;;;;;;;23.92;10.20;;;2.80;99.90;;;;;;4848502;29;20082;-79
2023/11/19 08:29:56;;;;;;;49.00;17.83;;;2.80;99.90;;;;;;4848524;29;20069;-79
2023/11/19 08:32:25;;;;;;;64.10;24.23;;;2.90;99.90;;;;;;4844018;29;20120;-80
2023/11/19 08:34:55;;;;;;;40.53;17.15;;;2.90;99.90;;;;;;4850780;29;20085;-79
2023/11/19 08:37:25;;;;;;;33.90;12.80;;;2.90;99.90;;;;;;4833740;29;20051;-80
2023/11/19 08:39:55;;;;;;;35.92;13.75;;;2.70;99.90;;;;;;4865236;29;20062;-79
2023/11/19 08:42:23;;;;;;;78.78;28.50;;;2.80;99.90;;;;;;4833490;29;22660;-79
2023/11/19 08:44:54;;;;;;;53.85;24.83;;;3.00;99.90;;;;;;4833696;29;20079;-80
2023/11/19 08:47:23;;;;;;;26.83;12.07;;;3.00;99.90;;;;;;4842552;29;20136;-80
2023/11/19 08:49:54;;;;;;;27.15;11.02;;;3.00;99.90;;;;;;4848594;29;20042;-79
2023/11/19 08:52:30;;;;;;;23.17;9.05;;;3.10;99.90;;;;;;4854891;29;20113;-81
2023/11/19 08:55:05;;;;;;;24.15;10.25;;;3.40;99.90;;;;;;4845889;29;20050;-80
2023/11/19 08:57:33;;;;;;;28.55;12.38;;;3.20;99.90;;;;;;4833447;29;20057;-79
2023/11/19 09:00:03;;;;;;;25.08;10.75;;;3.20;99.90;;;;;;4827913;29;20165;-79
2023/11/19 09:02:32;;;;;;;62.22;22.38;;;3.10;99.90;;;;;;4831171;29;22015;-79
2023/11/19 09:05:01;;;;;;;28.45;10.98;;;3.20;99.90;;;;;;4853198;29;20061;-80
2023/11/19 09:07:32;;;;;;;21.23;8.30;;;3.40;99.90;;;;;;4871124;29;20133;-78
2023/11/19 09:10:01;;;;;;;14.88;6.35;;;3.50;99.90;;;;;;4838293;29;20053;-78
2023/11/19 09:12:29;;;;;;;14.63;6.05;;;3.20;99.90;;;;;;4855940;29;20068;-78
2023/11/19 09:14:58;;;;;;;13.15;5.50;;;3.30;99.90;;;;;;4833335;29;20049;-78
2023/11/19 09:17:26;;;;;;;12.80;5.82;;;3.30;99.90;;;;;;4833002;29;20058;-79
2023/11/19 09:19:55;;;;;;;16.30;8.00;;;3.30;99.90;;;;;;4862331;29;20054;-78
2023/11/19 09:22:23;;;;;;;31.55;14.10;;;3.30;99.90;;;;;;4843213;29;20084;-77
2023/11/19 09:24:53;;;;;;;26.20;12.88;;;3.30;99.90;;;;;;4845527;29;20053;-78
2023/11/19 09:27:22;;;;;;;16.75;7.18;;;3.40;99.90;;;;;;4829989;29;20053;-78
2023/11/19 09:29:56;;;;;;;16.20;7.28;;;3.50;99.90;;;;;;4846719;29;22283;-79
2023/11/19 09:32:25;;;;;;;19.08;7.75;;;3.40;99.90;;;;;;4847184;29;21960;-78
2023/11/19 09:34:54;;;;;;;40.30;9.60;;;3.40;99.90;;;;;;4847828;29;20065;-81
2023/11/19 09:37:22;;;;;;;21.55;7.88;;;3.40;99.90;;;;;;4831615;29;20345;-79
2023/11/19 09:39:51;;;;;;;19.45;7.57;;;3.50;99.90;;;;;;4846628;29;22957;-78
2023/11/19 09:42:21;;;;;;;15.15;6.85;;;3.60;99.90;;;;;;4847021;29;20230;-78
2023/11/19 09:44:50;;;;;;;15.05;6.28;;;3.50;99.90;;;;;;4842963;29;20042;-78
2023/11/19 09:47:21;;;;;;;19.23;7.68;;;3.50;99.90;;;;;;4848406;29;21512;-80
2023/11/19 09:49:50;;;;;;;19.80;7.05;;;4.80;99.90;;;;;;4860704;29;20394;-77
2023/11/19 09:52:19;;;;;;;15.32;7.07;;;3.90;99.90;;;;;;4851922;29;20053;-77
2023/11/19 09:54:48;;;;;;;20.67;9.02;;;3.70;99.90;;;;;;4848905;29;20037;-80
2023/11/19 09:57:19;;;;;;;24.10;10.02;;;3.70;99.90;;;;;;4844551;29;20118;-80
2023/11/19 09:59:49;;;;;;;19.90;7.50;;;3.60;99.90;;;;;;4834736;29;20066;-79
2023/11/19 10:02:19;;;;;;;27.70;12.48;;;3.60;99.90;;;;;;4824876;29;20062;-79
2023/11/19 10:04:49;;;;;;;31.52;13.02;;;4.00;99.90;;;;;;4846544;29;20088;-80
2023/11/19 10:07:18;;;;;;;38.20;10.60;;;3.70;99.90;;;;;;4838446;29;20057;-81
2023/11/19 10:09:48;;;;;;;36.05;13.45;;;3.80;99.90;;;;;;4834728;29;20102;-80
2023/11/19 10:12:17;;;;;;;25.80;9.55;;;3.80;99.90;;;;;;4837911;29;20062;-80
2023/11/19 10:14:51;;;;;;;20.45;8.40;;;3.70;99.90;;;;;;4846986;29;20048;-80
2023/11/19 10:17:20;;;;;;;29.02;11.85;;;3.90;99.90;;;;;;4831816;29;20042;-80
2023/11/19 10:19:49;;;;;;;21.40;7.88;;;3.70;99.90;;;;;;4830784;29;20062;-80
2023/11/19 10:22:18;;;;;;;16.20;6.50;;;3.50;99.90;;;;;;4828805;29;20061;-80
2023/11/19 10:24:47;;;;;;;11.82;5.25;;;3.80;99.90;;;;;;4829576;29;20168;-80
2023/11/19 10:27:26;;;;;;;15.02;5.88;;;3.80;99.90;;;;;;4829186;29;20062;-80
2023/11/19 10:30:00;;;;;;;19.42;7.30;;;3.80;99.90;;;;;;4850052;29;20101;-81
2023/11/19 10:32:29;;;;;;;13.18;5.82;;;3.90;99.90;;;;;;4832338;29;20073;-81
2023/11/19 10:35:07;;;;;;;16.58;6.13;;;3.90;99.90;;;;;;4828675;29;20056;-80
2023/11/19 10:37:37;;;;;;;128.93;43.47;;;3.90;99.90;;;;;;4829523;29;20065;-79
2023/11/19 10:40:10;;;;;;;127.85;48.92;;;3.90;99.90;;;;;;4828451;29;20064;-79
2023/11/19 10:42:40;;;;;;;;;;;4.00;99.90;;;;;;4838177;29;20257;-79
2023/11/19 10:45:24;;;;;;;56.75;17.90;;;4.60;99.90;;;;;;4844895;29;19920;-79
2023/11/19 10:47:53;;;;;;;82.55;21.95;;;4.10;99.90;;;;;;4845044;29;20129;-80
2023/11/19 10:50:23;;;;;;;23.73;10.77;;;5.60;99.90;;;;;;4834090;29;22167;-80
2023/11/19 10:52:56;;;;;;;34.75;12.60;;;4.10;99.90;;;;;;4830111;29;20112;-79
2023/11/19 10:55:30;;;;;;;43.92;17.80;;;4.10;99.90;;;;;;4833498;29;20125;-79
2023/11/19 10:58:01;;;;;;;30.20;11.25;;;4.30;99.90;;;;;;4830897;29;20109;-79
2023/11/19 11:00:38;;;;;;;20.20;8.73;;;4.10;99.90;;;;;;4853520;29;20096;-78
2023/11/19 11:03:11;;;;;;;17.63;7.43;;;4.10;99.90;;;;;;4828546;29;20053;-79
2023/11/19 11:05:41;;;;;;;26.45;9.77;;;4.10;99.90;;;;;;4837494;29;22281;-78
2023/11/19 11:08:10;;;;;;;23.83;9.40;;;4.10;99.90;;;;;;4829467;29;20057;-78
2023/11/19 11:10:44;;;;;;;21.77;9.63;;;4.10;99.90;;;;;;4829299;29;20057;-78
2023/11/19 11:13:16;;;;;;;20.63;8.65;;;3.80;99.90;;;;;;4815626;29;20050;-79
2023/11/19 11:15:47;;;;;;;29.73;14.75;;;4.10;99.90;;;;;;4828807;29;20059;-79
2023/11/19 11:18:17;;;;;;;21.40;8.55;;;4.20;99.90;;;;;;4821518;29;20054;-77
2023/11/19 11:20:46;;;;;;;16.85;6.95;;;4.20;99.90;;;;;;4814646;29;20062;-78
2023/11/19 11:23:39;;;;;;;19.60;8.10;;;4.20;99.90;;;;;;4813943;29;20125;-78
2023/11/19 11:26:36;;;;;;;14.45;7.18;;;4.60;99.90;;;;;;4828007;29;20061;-79
2023/11/19 11:29:09;;;;;;;16.65;6.80;;;4.40;99.90;;;;;;4812526;29;20057;-78
2023/11/19 11:31:49;;;;;;;22.35;8.95;;;4.40;99.90;;;;;;4814366;29;22075;-79
2023/11/19 11:34:43;;;;;;;15.50;6.55;;;4.40;99.90;;;;;;4826493;29;20053;-78
2023/11/19 11:37:23;;;;;;;16.75;7.10;;;3.70;99.90;;;;;;4810764;29;20074;-78
2023/11/19 11:39:52;;;;;;;15.52;6.68;;;4.40;99.90;;;;;;4821674;29;20102;-79
2023/11/19 11:42:36;;;;;;;15.65;7.07;;;4.40;99.90;;;;;;4823208;29;20088;-77
2023/11/19 11:45:08;;;;;;;15.82;6.30;;;4.40;99.90;;;;;;4831163;29;20148;-78
2023/11/19 11:48:19;;;;;;;16.27;6.70;;;4.40;99.90;;;;;;4827432;29;22226;-77
2023/11/19 11:50:57;;;;;;;20.75;9.18;;;4.40;99.90;;;;;;4812465;29;20150;-79
2023/11/19 11:53:27;;;;;;;17.48;7.72;;;4.40;99.90;;;;;;4825873;29;20061;-77
2023/11/19 11:55:57;;;;;;;16.33;7.28;;;4.40;99.90;;;;;;4811115;29;20818;-78
2023/11/19 11:58:30;;;;;;;22.70;10.77;;;4.40;99.90;;;;;;4855847;29;20065;-80
2023/11/19 12:01:01;;;;;;;28.23;11.43;;;4.40;99.90;;;;;;4813233;29;20058;-79
2023/11/19 12:03:33;;;;;;;25.75;10.32;;;4.60;99.90;;;;;;4838526;29;20053;-77
2023/11/19 12:06:03;;;;;;;24.58;10.18;;;4.60;99.90;;;;;;4826999;29;20133;-80
2023/11/19 12:08:31;;;;;;;26.15;11.10;;;4.50;99.90;;;;;;4828441;29;20049;-79
2023/11/19 12:11:03;;;;;;;18.20;9.10;;;4.50;99.90;;;;;;4840332;29;20142;-79
2023/11/19 12:13:54;;;;;;;20.93;8.27;;;4.60;99.90;;;;;;4845582;29;20058;-79
2023/11/19 12:16:23;;;;;;;18.13;7.72;;;4.60;99.90;;;;;;4829865;29;20058;-78
2023/11/19 12:18:55;;;;;;;16.52;7.10;;;4.70;99.90;;;;;;4832473;29;20094;-82
2023/11/19 12:21:30;;;;;;;15.67;7.03;;;4.70;99.90;;;;;;4837926;29;20060;-77
2023/11/19 12:24:07;;;;;;;13.75;6.28;;;4.80;99.90;;;;;;4834050;29;20062;-80
2023/11/19 12:26:38;;;;;;;14.98;7.18;;;4.70;99.90;;;;;;4861103;29;20057;-77
2023/11/19 12:29:07;;;;;;;15.60;7.25;;;4.90;99.90;;;;;;4846818;29;20065;-84
2023/11/19 12:31:37;;;;;;;15.23;6.88;;;5.00;99.90;;;;;;4842368;29;20065;-77
2023/11/19 12:34:12;;;;;;;15.43;7.30;;;5.00;99.90;;;;;;4849458;29;20125;-81
2023/11/19 12:36:45;;;;;;;12.75;6.18;;;5.10;99.90;;;;;;4831078;29;20053;-78
2023/11/19 12:39:14;;;;;;;13.50;6.45;;;5.10;99.90;;;;;;4843597;29;20703;-77
2023/11/19 12:41:56;;;;;;;14.13;7.32;;;5.10;99.90;;;;;;4833415;29;20061;-77
2023/11/19 12:44:25;;;;;;;11.02;5.55;;;5.20;99.90;;;;;;4847820;29;20061;-78
2023/11/19 12:47:12;;;;;;;10.27;4.85;;;5.10;99.90;;;;;;4833858;29;20061;-84
2023/11/19 12:49:42;;;;;;;25.23;9.18;;;3.90;99.90;;;;;;4858194;29;20655;-77
2023/11/19 12:52:14;;;;;;;33.33;11.73;;;5.10;99.90;;;;;;4834309;29;20049;-77
2023/11/19 12:54:43;;;;;;;24.50;10.27;;;5.40;99.90;;;;;;4853714;29;20053;-78
2023/11/19 12:57:12;;;;;;;27.33;9.88;;;5.10;99.90;;;;;;4844245;29;20060;-79
2023/11/19 12:59:42;;;;;;;19.95;8.48;;;5.30;99.90;;;;;;4845090;29;20060;-79
2023/11/19 13:02:11;;;;;;;19.38;7.95;;;5.10;99.90;;;;;;4830707;29;20616;-77
2023/11/19 13:04:42;;;;;;;18.40;6.50;;;5.10;99.90;;;;;;4843223;29;20117;-81
2023/11/19 13:07:11;;;;;;;22.02;8.70;;;5.20;99.90;;;;;;4831802;29;20371;-79
2023/11/19 13:09:40;;;;;;;35.38;10.25;;;5.10;99.90;;;;;;4830816;29;20057;-82
2023/11/19 13:12:16;;;;;;;17.63;5.45;;;5.10;99.90;;;;;;4846395;29;20063;-81
2023/11/19 13:14:46;;;;;;;27.60;8.80;;;5.10;99.90;;;;;;4846099;29;20049;-79
2023/11/19 13:17:15;;;;;;;34.92;11.38;;;5.00;99.90;;;;;;4824838;29;20535;-78
2023/11/19 13:19:48;;;;;;;32.03;9.40;;;5.10;99.90;;;;;;4832657;29;20053;-79
2023/11/19 13:22:16;;;;;;;26.40;9.07;;;5.00;99.90;;;;;;4835125;29;20072;-79
2023/11/19 13:24:45;;;;;;;16.05;6.50;;;5.00;99.90;;;;;;4833793;29;20058;-80
2023/11/19 13:27:14;;;;;;;15.73;6.70;;;5.10;99.90;;;;;;4816046;29;20575;-79
2023/11/19 13:29:43;;;;;;;16.30;7.03;;;5.80;99.90;;;;;;4842956;29;20068;-81
2023/11/19 13:32:12;;;;;;;15.45;7.32;;;5.10;99.90;;;;;;4844046;29;20167;-79
2023/11/19 13:34:40;;;;;;;13.15;6.32;;;5.10;99.90;;;;;;4814479;29;20054;-79
2023/11/19 13:37:10;;;;;;;10.98;6.68;;;5.10;99.90;;;;;;4826535;29;20064;-79
2023/11/19 13:39:43;;;;;;;14.68;6.75;;;5.10;99.90;;;;;;4824497;29;20056;-79
2023/11/19 13:42:11;;;;;;;12.48;5.90;;;5.10;99.90;;;;;;4833549;29;20526;-78
2023/11/19 13:44:41;;;;;;;11.35;4.88;;;5.10;99.90;;;;;;4818001;29;20056;-79
2023/11/19 13:47:11;;;;;;;9.10;4.43;;;5.20;99.90;;;;;;4852530;29;20834;-78
2023/11/19 13:49:39;;;;;;;11.23;4.85;;;5.10;99.90;;;;;;4842897;29;20056;-78
2023/11/19 13:52:08;;;;;;;14.23;6.38;;;5.10;99.90;;;;;;4847113;29;20823;-77
2023/11/19 13:54:38;;;;;;;12.98;5.43;;;5.20;99.90;;;;;;4827511;29;20059;-78
2023/11/19 13:57:07;;;;;;;8.77;4.13;;;5.10;99.90;;;;;;4831729;29;20226;-79
2023/11/19 13:59:41;;;;;;;8.98;4.30;;;5.10;99.90;;;;;;4833427;29;20135;-77